WetterOnline ( https://www.wetteronline.de )

Wetter aktuell Cuxhaven

Aktuelles Wetter: Cuxhaven (12m)

6-stündlich | Neueste Meldungen
Ortszeit Temperatur Wetter
Fr, 28.01. 1:00 6.0° C bewölkt
Do, 27.01. 19:00 6.0° C leicht bewölkt
Do, 27.01. 13:00 7.9° C wolkig
Do, 27.01. 7:00 5.5° C leichter Regen
Do, 27.01. 1:00 6.4° C bedeckt
Mi, 26.01. 19:00 5.3° C bewölkt
Mi, 26.01. 13:00 3.4° C bedeckt
Mi, 26.01. 7:00 3.4° C Regen
Ortszeit Temperatur Wetter
Fr, 28.01. 1:30 6.0° C leicht bewölkt
Fr, 28.01. 1:20 6.0° C leicht bewölkt
Fr, 28.01. 1:10 5.6° C leicht bewölkt
Fr, 28.01. 1:00 6.0° C bewölkt
Fr, 28.01. 0:50 6.0° C bewölkt
Fr, 28.01. 0:40 6.0° C bewölkt
Fr, 28.01. 0:30 5.8° C wolkig
Fr, 28.01. 0:00 5.8° C leicht bewölkt
Do, 27.01. 23:30 5.9° C leicht bewölkt
Do, 27.01. 23:00 6.0° C leicht bewölkt
Do, 27.01. 22:30 6.0° C fast wolkenlos
Ortszeit Relative Feuchte Sichtweite
Fr, 28.01. 1:00 73% 15 km
Do, 27.01. 19:00 76% 18 km
Do, 27.01. 13:00 88% 12 km
Do, 27.01. 7:00 95% 2.5 km
Do, 27.01. 1:00 84% 16 km
Mi, 26.01. 19:00 94% 4.6 km
Mi, 26.01. 13:00 94% 2.6 km
Mi, 26.01. 7:00 94% 3.7 km
Ortszeit Relative Feuchte Sichtweite
Fr, 28.01. 1:30 73% 17 km
Fr, 28.01. 1:20 73% -
Fr, 28.01. 1:10 76% -
Fr, 28.01. 1:00 73% 15 km
Fr, 28.01. 0:50 73% -
Fr, 28.01. 0:40 72% -
Fr, 28.01. 0:30 74% 17 km
Fr, 28.01. 0:00 73% 15 km
Do, 27.01. 23:30 74% 15 km
Do, 27.01. 23:00 74% 14 km
Do, 27.01. 22:30 71% 16 km
Ortszeit Niederschlagsmenge Niederschlagsart
Fr, 28.01. 1:00 0.1 l/m2 in 6 Std. Regen
Do, 27.01. 19:00 2 l/m2 in 12 Std. Regen
Do, 27.01. 13:00 2 l/m2 in 6 Std. Regen
Do, 27.01. 7:00 5 l/m2 in 12 Std. Regen
Do, 27.01. 1:00 0.1 l/m2 in 6 Std. Regen
Mi, 26.01. 19:00 0.1 l/m2 in 12 Std. Regen
Mi, 26.01. 13:00 0.1 l/m2 in 6 Std. Regen
Mi, 26.01. 7:00 0.4 l/m2 in 12 Std. Regen
Ortszeit Niederschlagsmenge Niederschlagsart
Fr, 28.01. 1:30 0.1 l/m2 in 1 Std. Schneeregen
Fr, 28.01. 1:20 keine Meldung -
Fr, 28.01. 1:10 keine Meldung -
Fr, 28.01. 1:00 0.0 l/m2 in 1 Std. Regen
Fr, 28.01. 0:50 keine Meldung -
Fr, 28.01. 0:40 keine Meldung -
Fr, 28.01. 0:30 0.0 l/m2 in 1 Std. -
Fr, 28.01. 0:00 0.0 l/m2 in 1 Std. -
Do, 27.01. 23:30 0.0 l/m2 in 1 Std. -
Do, 27.01. 23:00 0.0 l/m2 in 1 Std. -
Do, 27.01. 22:30 0.0 l/m2 in 1 Std. -
Ortszeit Stärke Spitze Richtung
km/h Bft. km/h Grad Sektor
Fr, 28.01. 1:00 43 6 76 300° NW
Do, 27.01. 19:00 40 6 68 290° W
Do, 27.01. 13:00 32 5 68 270° W
Do, 27.01. 7:00 30 5 70 240° SW
Do, 27.01. 1:00 32 5 58 250° W
Mi, 26.01. 19:00 22 4 48 250° W
Mi, 26.01. 13:00 20 4 43 240° SW
Mi, 26.01. 7:00 17 3 39 230° SW
Ortszeit Stärke Spitze Richtung
km/h Bft. km/h Grad Sektor
Fr, 28.01. 1:30 39 6 57 300° NW
Fr, 28.01. 1:20 39 6 - 300° NW
Fr, 28.01. 1:10 33 5 - 300° NW
Fr, 28.01. 1:00 43 6 65 300° NW
Fr, 28.01. 0:50 43 6 - 300° NW
Fr, 28.01. 0:40 47 6 - 300° NW
Fr, 28.01. 0:30 46 6 67 300° NW
Fr, 28.01. 0:00 44 6 67 300° NW
Do, 27.01. 23:30 47 6 68 300° NW
Do, 27.01. 23:00 47 6 76 300° NW
Do, 27.01. 22:30 50 7 76 300° NW
Ortszeit Untergrenze Bedeckung Gattung
total tief tief mittel hoch
Fr, 28.01. 1:00 870 m 7/8 7/8 - - -
Do, 27.01. 19:00 960 m 2/8 1/8 - - -
Do, 27.01. 13:00 540 m 5/8 5/8 - - -
Do, 27.01. 7:00 180 m 8/8 8/8 - - -
Do, 27.01. 1:00 570 m 8/8 8/8 - - -
Mi, 26.01. 19:00 180 m 7/8 7/8 - - -
Mi, 26.01. 13:00 150 m 8/8 8/8 - - -
Mi, 26.01. 7:00 180 m 8/8 8/8 - - -
Ortszeit Bedeckungsgrad in Achtel und Wolkenuntergrenze
Fr, 28.01. 1:30 1(720m) 4(1110m)
Fr, 28.01. 1:20 1(720m) 4(1110m) 4(1410m)
Fr, 28.01. 1:10 4
Fr, 28.01. 1:00 2(870m) 7(1140m) 7(1380m)
Fr, 28.01. 0:50 2(870m) 7(1140m) 7(1380m)
Fr, 28.01. 0:40 7
Fr, 28.01. 0:30 4(1020m) 6(1500m)
Fr, 28.01. 0:00 2(870m) 4(1500m)
Do, 27.01. 23:30 2(900m)
Do, 27.01. 23:00 2(960m)
Do, 27.01. 22:30 1(870m)
Ortszeit Luftdruck NN (hPa) Tendenz (hPa in 3 Std.)
Fr, 28.01. 1:00 1020 + 2,9
Do, 27.01. 19:00 1015 + 1,0
Do, 27.01. 13:00 1014 + 0,2
Do, 27.01. 7:00 1015 - 2,4
Do, 27.01. 1:00 1019 - 3,2
Mi, 26.01. 19:00 1024 - 1,6
Mi, 26.01. 13:00 1027 - 0,8
Mi, 26.01. 7:00 1028 - 1,4
Ortszeit Luftdruck NN (hPa) Tendenz (hPa in 3 Std.)
Fr, 28.01. 1:30 1020 + 2,8
Fr, 28.01. 1:20 1020 keine Meldung
Fr, 28.01. 1:10 1020 keine Meldung
Fr, 28.01. 1:00 1020 + 2,9
Fr, 28.01. 0:50 1020 keine Meldung
Fr, 28.01. 0:40 1019 keine Meldung
Fr, 28.01. 0:30 1019 + 2,6
Fr, 28.01. 0:00 1019 + 2,6
Do, 27.01. 23:30 1018 + 2,6
Do, 27.01. 23:00 1018 + 2,2
Do, 27.01. 22:30 1017 + 1,8
Ortszeit Schneehöhe (cm)
Fr, 28.01. 1:00 0
Do, 27.01. 19:00 0
Do, 27.01. 13:00 0
Do, 27.01. 7:00 0
Do, 27.01. 1:00 0
Mi, 26.01. 19:00 0
Mi, 26.01. 13:00 0
Mi, 26.01. 7:00 0
Ortszeit Schneehöhe (cm)
Fr, 28.01. 1:30 0
Fr, 28.01. 1:20 0
Fr, 28.01. 1:10 0
Fr, 28.01. 1:00 0
Fr, 28.01. 0:50 0
Fr, 28.01. 0:40 0
Fr, 28.01. 0:30 0
Fr, 28.01. 0:00 0
Do, 27.01. 23:30 0
Do, 27.01. 23:00 0
Do, 27.01. 22:30 0
Link zu dieser Seite / Seite empfehlen

Das Wetter in ...